sensor_id;sensor_type;location;lat;lon;timestamp;P1;durP1;ratioP1;P2;durP2;ratioP2
6840;SDS011;3458;53.678;14.080;2022-10-16T00:00:31;7.97;;;5.00;;
6840;SDS011;3458;53.678;14.080;2022-10-16T00:02:57;8.00;;;6.13;;
6840;SDS011;3458;53.678;14.080;2022-10-16T00:05:22;13.53;;;5.80;;
6840;SDS011;3458;53.678;14.080;2022-10-16T00:07:48;9.00;;;6.27;;
6840;SDS011;3458;53.678;14.080;2022-10-16T00:10:13;7.60;;;5.60;;
6840;SDS011;3458;53.678;14.080;2022-10-16T00:12:39;6.77;;;5.27;;
6840;SDS011;3458;53.678;14.080;2022-10-16T00:15:04;11.23;;;7.50;;
6840;SDS011;3458;53.678;14.080;2022-10-16T00:17:31;11.93;;;7.63;;
6840;SDS011;3458;53.678;14.080;2022-10-16T00:19:57;8.33;;;5.60;;
6840;SDS011;3458;53.678;14.080;2022-10-16T00:22:22;11.13;;;6.53;;
6840;SDS011;3458;53.678;14.080;2022-10-16T00:24:48;9.60;;;6.83;;
6840;SDS011;3458;53.678;14.080;2022-10-16T00:27:14;10.53;;;6.60;;
6840;SDS011;3458;53.678;14.080;2022-10-16T00:29:39;10.37;;;6.60;;
6840;SDS011;3458;53.678;14.080;2022-10-16T00:32:05;10.00;;;6.70;;
6840;SDS011;3458;53.678;14.080;2022-10-16T00:34:30;7.77;;;6.00;;
6840;SDS011;3458;53.678;14.080;2022-10-16T00:36:56;8.30;;;6.57;;
6840;SDS011;3458;53.678;14.080;2022-10-16T00:39:21;7.27;;;5.77;;
6840;SDS011;3458;53.678;14.080;2022-10-16T00:41:47;7.77;;;6.30;;
6840;SDS011;3458;53.678;14.080;2022-10-16T00:47:09;10.77;;;6.10;;
6840;SDS011;3458;53.678;14.080;2022-10-16T00:49:37;10.07;;;5.33;;
6840;SDS011;3458;53.678;14.080;2022-10-16T00:52:03;9.03;;;6.97;;
6840;SDS011;3458;53.678;14.080;2022-10-16T00:54:30;8.30;;;5.63;;
6840;SDS011;3458;53.678;14.080;2022-10-16T00:56:58;8.50;;;5.93;;
6840;SDS011;3458;53.678;14.080;2022-10-16T00:59:31;5.93;;;4.10;;
6840;SDS011;3458;53.678;14.080;2022-10-16T01:02:02;11.40;;;4.80;;
6840;SDS011;3458;53.678;14.080;2022-10-16T01:04:31;8.57;;;5.63;;
6840;SDS011;3458;53.678;14.080;2022-10-16T01:07:14;6.10;;;5.20;;
6840;SDS011;3458;53.678;14.080;2022-10-16T01:09:57;8.53;;;5.43;;
6840;SDS011;3458;53.678;14.080;2022-10-16T01:12:46;6.47;;;4.93;;
6840;SDS011;3458;53.678;14.080;2022-10-16T01:21:05;8.90;;;5.50;;
6840;SDS011;3458;53.678;14.080;2022-10-16T01:23:44;6.07;;;4.77;;
6840;SDS011;3458;53.678;14.080;2022-10-16T01:28:57;6.13;;;4.80;;
6840;SDS011;3458;53.678;14.080;2022-10-16T01:31:47;8.97;;;4.90;;
6840;SDS011;3458;53.678;14.080;2022-10-16T01:34:39;4.80;;;4.33;;
6840;SDS011;3458;53.678;14.080;2022-10-16T01:37:15;5.23;;;4.70;;
6840;SDS011;3458;53.678;14.080;2022-10-16T01:39:45;5.63;;;4.60;;
6840;SDS011;3458;53.678;14.080;2022-10-16T01:42:14;6.93;;;4.40;;
6840;SDS011;3458;53.678;14.080;2022-10-16T01:44:50;6.03;;;4.27;;
6840;SDS011;3458;53.678;14.080;2022-10-16T01:47:17;6.63;;;4.37;;
6840;SDS011;3458;53.678;14.080;2022-10-16T01:49:47;5.13;;;4.43;;
6840;SDS011;3458;53.678;14.080;2022-10-16T01:52:14;10.83;;;4.83;;
6840;SDS011;3458;53.678;14.080;2022-10-16T01:54:43;6.10;;;4.27;;
6840;SDS011;3458;53.678;14.080;2022-10-16T01:57:11;7.77;;;4.40;;
6840;SDS011;3458;53.678;14.080;2022-10-16T01:59:42;5.67;;;4.67;;
6840;SDS011;3458;53.678;14.080;2022-10-16T02:02:12;6.87;;;4.60;;
6840;SDS011;3458;53.678;14.080;2022-10-16T02:04:44;5.10;;;4.20;;
6840;SDS011;3458;53.678;14.080;2022-10-16T02:07:13;6.23;;;4.23;;
6840;SDS011;3458;53.678;14.080;2022-10-16T02:09:39;5.40;;;4.70;;
6840;SDS011;3458;53.678;14.080;2022-10-16T02:12:13;5.07;;;4.57;;
6840;SDS011;3458;53.678;14.080;2022-10-16T02:14:44;5.50;;;4.17;;
6840;SDS011;3458;53.678;14.080;2022-10-16T02:17:10;4.33;;;3.87;;
6840;SDS011;3458;53.678;14.080;2022-10-16T02:19:41;3.90;;;3.60;;
6840;SDS011;3458;53.678;14.080;2022-10-16T02:22:09;4.63;;;3.80;;
6840;SDS011;3458;53.678;14.080;2022-10-16T02:24:46;4.97;;;3.60;;
6840;SDS011;3458;53.678;14.080;2022-10-16T02:30:29;6.60;;;4.20;;
6840;SDS011;3458;53.678;14.080;2022-10-16T02:33:12;7.17;;;3.73;;
6840;SDS011;3458;53.678;14.080;2022-10-16T02:35:39;8.97;;;3.40;;
6840;SDS011;3458;53.678;14.080;2022-10-16T02:38:08;4.80;;;3.90;;
6840;SDS011;3458;53.678;14.080;2022-10-16T02:40:35;3.73;;;3.30;;
6840;SDS011;3458;53.678;14.080;2022-10-16T02:43:02;4.10;;;3.80;;
6840;SDS011;3458;53.678;14.080;2022-10-16T02:45:29;4.17;;;3.77;;
6840;SDS011;3458;53.678;14.080;2022-10-16T02:47:55;3.37;;;3.07;;
6840;SDS011;3458;53.678;14.080;2022-10-16T02:50:21;4.27;;;3.80;;
6840;SDS011;3458;53.678;14.080;2022-10-16T02:52:47;4.10;;;3.70;;
6840;SDS011;3458;53.678;14.080;2022-10-16T02:55:12;6.00;;;3.97;;
6840;SDS011;3458;53.678;14.080;2022-10-16T02:57:38;6.80;;;3.67;;
6840;SDS011;3458;53.678;14.080;2022-10-16T03:00:05;4.13;;;3.23;;
6840;SDS011;3458;53.678;14.080;2022-10-16T03:02:34;3.93;;;3.17;;
6840;SDS011;3458;53.678;14.080;2022-10-16T03:05:00;3.47;;;3.17;;
6840;SDS011;3458;53.678;14.080;2022-10-16T03:07:26;3.30;;;3.00;;
6840;SDS011;3458;53.678;14.080;2022-10-16T03:09:51;3.63;;;3.03;;
6840;SDS011;3458;53.678;14.080;2022-10-16T03:12:17;7.37;;;3.80;;
6840;SDS011;3458;53.678;14.080;2022-10-16T03:14:42;3.50;;;3.20;;
6840;SDS011;3458;53.678;14.080;2022-10-16T03:17:08;2.90;;;2.70;;
6840;SDS011;3458;53.678;14.080;2022-10-16T03:19:33;4.70;;;3.30;;
6840;SDS011;3458;53.678;14.080;2022-10-16T03:22:00;2.90;;;2.70;;
6840;SDS011;3458;53.678;14.080;2022-10-16T03:24:26;3.30;;;3.00;;
6840;SDS011;3458;53.678;14.080;2022-10-16T03:26:52;3.40;;;2.73;;
6840;SDS011;3458;53.678;14.080;2022-10-16T03:29:17;4.77;;;3.60;;
6840;SDS011;3458;53.678;14.080;2022-10-16T03:31:43;4.57;;;3.70;;
6840;SDS011;3458;53.678;14.080;2022-10-16T03:34:08;5.60;;;3.30;;
6840;SDS011;3458;53.678;14.080;2022-10-16T03:36:34;5.87;;;2.90;;
6840;SDS011;3458;53.678;14.080;2022-10-16T03:39:00;5.20;;;3.10;;
6840;SDS011;3458;53.678;14.080;2022-10-16T03:41:25;4.03;;;3.27;;
6840;SDS011;3458;53.678;14.080;2022-10-16T03:43:51;3.17;;;2.70;;
6840;SDS011;3458;53.678;14.080;2022-10-16T03:46:16;7.97;;;3.13;;
6840;SDS011;3458;53.678;14.080;2022-10-16T03:48:42;3.60;;;3.07;;
6840;SDS011;3458;53.678;14.080;2022-10-16T03:51:07;3.13;;;2.83;;
6840;SDS011;3458;53.678;14.080;2022-10-16T03:53:33;3.27;;;2.97;;
6840;SDS011;3458;53.678;14.080;2022-10-16T03:55:58;3.70;;;3.10;;
6840;SDS011;3458;53.678;14.080;2022-10-16T03:58:24;4.87;;;3.20;;
6840;SDS011;3458;53.678;14.080;2022-10-16T04:00:49;3.87;;;3.10;;
6840;SDS011;3458;53.678;14.080;2022-10-16T04:03:15;3.20;;;2.90;;
6840;SDS011;3458;53.678;14.080;2022-10-16T04:05:40;4.10;;;3.00;;
6840;SDS011;3458;53.678;14.080;2022-10-16T04:08:06;2.80;;;2.60;;
6840;SDS011;3458;53.678;14.080;2022-10-16T04:10:32;3.60;;;3.07;;
6840;SDS011;3458;53.678;14.080;2022-10-16T04:12:57;4.00;;;3.17;;
6840;SDS011;3458;53.678;14.080;2022-10-16T04:15:23;3.33;;;3.03;;
6840;SDS011;3458;53.678;14.080;2022-10-16T04:17:49;3.03;;;2.73;;
6840;SDS011;3458;53.678;14.080;2022-10-16T04:20:15;5.73;;;2.73;;
6840;SDS011;3458;53.678;14.080;2022-10-16T04:22:41;3.60;;;3.17;;
6840;SDS011;3458;53.678;14.080;2022-10-16T04:25:07;3.10;;;2.90;;
6840;SDS011;3458;53.678;14.080;2022-10-16T04:27:33;3.83;;;2.77;;
6840;SDS011;3458;53.678;14.080;2022-10-16T04:29:59;4.10;;;3.33;;
6840;SDS011;3458;53.678;14.080;2022-10-16T04:32:25;4.90;;;3.57;;
6840;SDS011;3458;53.678;14.080;2022-10-16T04:34:50;3.00;;;2.70;;
6840;SDS011;3458;53.678;14.080;2022-10-16T04:37:16;4.17;;;2.90;;
6840;SDS011;3458;53.678;14.080;2022-10-16T04:39:42;3.63;;;3.23;;
6840;SDS011;3458;53.678;14.080;2022-10-16T04:42:07;3.40;;;3.00;;
6840;SDS011;3458;53.678;14.080;2022-10-16T04:44:33;3.27;;;2.97;;
6840;SDS011;3458;53.678;14.080;2022-10-16T04:46:58;3.63;;;3.00;;
6840;SDS011;3458;53.678;14.080;2022-10-16T04:49:24;7.77;;;3.13;;
6840;SDS011;3458;53.678;14.080;2022-10-16T04:51:49;6.10;;;3.10;;
6840;SDS011;3458;53.678;14.080;2022-10-16T04:54:15;4.03;;;3.10;;
6840;SDS011;3458;53.678;14.080;2022-10-16T04:56:41;3.60;;;2.70;;
6840;SDS011;3458;53.678;14.080;2022-10-16T04:59:15;3.57;;;3.27;;
6840;SDS011;3458;53.678;14.080;2022-10-16T05:01:42;7.63;;;2.97;;
6840;SDS011;3458;53.678;14.080;2022-10-16T05:04:08;4.43;;;3.40;;
6840;SDS011;3458;53.678;14.080;2022-10-16T05:06:34;3.97;;;3.57;;
6840;SDS011;3458;53.678;14.080;2022-10-16T05:08:59;5.70;;;3.80;;
6840;SDS011;3458;53.678;14.080;2022-10-16T05:11:25;3.03;;;2.77;;
6840;SDS011;3458;53.678;14.080;2022-10-16T05:13:51;3.23;;;2.93;;
6840;SDS011;3458;53.678;14.080;2022-10-16T05:16:16;3.47;;;2.90;;
6840;SDS011;3458;53.678;14.080;2022-10-16T05:18:42;4.20;;;3.73;;
6840;SDS011;3458;53.678;14.080;2022-10-16T05:21:07;8.17;;;2.93;;
6840;SDS011;3458;53.678;14.080;2022-10-16T05:23:33;5.20;;;3.40;;
6840;SDS011;3458;53.678;14.080;2022-10-16T05:25:59;3.93;;;3.17;;
6840;SDS011;3458;53.678;14.080;2022-10-16T05:28:25;5.93;;;3.33;;
6840;SDS011;3458;53.678;14.080;2022-10-16T05:30:52;7.23;;;4.30;;
6840;SDS011;3458;53.678;14.080;2022-10-16T05:33:21;5.80;;;3.70;;
6840;SDS011;3458;53.678;14.080;2022-10-16T05:35:48;7.33;;;3.90;;
6840;SDS011;3458;53.678;14.080;2022-10-16T05:38:15;7.87;;;5.37;;
6840;SDS011;3458;53.678;14.080;2022-10-16T05:40:41;7.23;;;6.37;;
6840;SDS011;3458;53.678;14.080;2022-10-16T05:43:06;12.33;;;8.27;;
6840;SDS011;3458;53.678;14.080;2022-10-16T05:45:32;11.17;;;9.80;;
6840;SDS011;3458;53.678;14.080;2022-10-16T05:47:57;11.17;;;10.00;;
6840;SDS011;3458;53.678;14.080;2022-10-16T05:50:24;6.13;;;5.53;;
6840;SDS011;3458;53.678;14.080;2022-10-16T05:52:49;5.53;;;5.03;;
6840;SDS011;3458;53.678;14.080;2022-10-16T05:55:15;4.83;;;4.00;;
6840;SDS011;3458;53.678;14.080;2022-10-16T05:57:40;5.90;;;4.63;;
6840;SDS011;3458;53.678;14.080;2022-10-16T06:00:06;3.50;;;3.20;;
6840;SDS011;3458;53.678;14.080;2022-10-16T06:02:32;3.77;;;3.37;;
6840;SDS011;3458;53.678;14.080;2022-10-16T06:04:57;8.20;;;3.27;;
6840;SDS011;3458;53.678;14.080;2022-10-16T06:07:23;3.33;;;3.03;;
6840;SDS011;3458;53.678;14.080;2022-10-16T06:09:49;4.00;;;3.50;;
6840;SDS011;3458;53.678;14.080;2022-10-16T06:12:18;3.87;;;3.40;;
6840;SDS011;3458;53.678;14.080;2022-10-16T06:14:45;4.53;;;4.07;;
6840;SDS011;3458;53.678;14.080;2022-10-16T06:17:12;3.37;;;3.07;;
6840;SDS011;3458;53.678;14.080;2022-10-16T06:19:38;5.03;;;3.20;;
6840;SDS011;3458;53.678;14.080;2022-10-16T06:22:04;3.13;;;2.83;;
6840;SDS011;3458;53.678;14.080;2022-10-16T06:24:30;3.47;;;3.20;;
6840;SDS011;3458;53.678;14.080;2022-10-16T06:26:55;3.70;;;3.40;;
6840;SDS011;3458;53.678;14.080;2022-10-16T06:29:21;3.63;;;3.20;;
6840;SDS011;3458;53.678;14.080;2022-10-16T06:31:46;3.67;;;3.37;;
6840;SDS011;3458;53.678;14.080;2022-10-16T06:34:12;4.93;;;2.67;;
6840;SDS011;3458;53.678;14.080;2022-10-16T06:36:39;2.60;;;2.40;;
6840;SDS011;3458;53.678;14.080;2022-10-16T06:39:04;3.90;;;3.03;;
6840;SDS011;3458;53.678;14.080;2022-10-16T06:41:32;3.27;;;2.97;;
6840;SDS011;3458;53.678;14.080;2022-10-16T06:43:58;3.30;;;3.00;;
6840;SDS011;3458;53.678;14.080;2022-10-16T06:46:24;4.20;;;2.70;;
6840;SDS011;3458;53.678;14.080;2022-10-16T06:48:50;4.27;;;3.03;;
6840;SDS011;3458;53.678;14.080;2022-10-16T06:51:17;5.30;;;2.97;;
6840;SDS011;3458;53.678;14.080;2022-10-16T06:53:45;3.20;;;2.90;;
6840;SDS011;3458;53.678;14.080;2022-10-16T06:56:18;4.00;;;2.47;;
6840;SDS011;3458;53.678;14.080;2022-10-16T06:58:45;6.13;;;3.50;;
6840;SDS011;3458;53.678;14.080;2022-10-16T07:01:11;7.67;;;2.87;;
6840;SDS011;3458;53.678;14.080;2022-10-16T07:03:39;3.87;;;2.20;;
6840;SDS011;3458;53.678;14.080;2022-10-16T07:06:06;4.47;;;2.80;;
6840;SDS011;3458;53.678;14.080;2022-10-16T07:08:33;2.43;;;2.23;;
6840;SDS011;3458;53.678;14.080;2022-10-16T07:11:00;2.80;;;2.50;;
6840;SDS011;3458;53.678;14.080;2022-10-16T07:13:27;3.03;;;2.30;;
6840;SDS011;3458;53.678;14.080;2022-10-16T07:15:52;3.43;;;2.43;;
6840;SDS011;3458;53.678;14.080;2022-10-16T07:18:18;2.70;;;2.50;;
6840;SDS011;3458;53.678;14.080;2022-10-16T07:20:44;7.20;;;4.00;;
6840;SDS011;3458;53.678;14.080;2022-10-16T07:23:09;3.93;;;3.33;;
6840;SDS011;3458;53.678;14.080;2022-10-16T07:25:35;3.33;;;2.40;;
6840;SDS011;3458;53.678;14.080;2022-10-16T07:28:00;4.60;;;3.00;;
6840;SDS011;3458;53.678;14.080;2022-10-16T07:30:26;8.33;;;4.10;;
6840;SDS011;3458;53.678;14.080;2022-10-16T07:32:51;4.97;;;3.10;;
6840;SDS011;3458;53.678;14.080;2022-10-16T07:35:17;6.60;;;3.27;;
6840;SDS011;3458;53.678;14.080;2022-10-16T07:37:45;5.27;;;3.57;;
6840;SDS011;3458;53.678;14.080;2022-10-16T07:40:11;5.57;;;3.10;;
6840;SDS011;3458;53.678;14.080;2022-10-16T07:42:37;2.93;;;2.30;;
6840;SDS011;3458;53.678;14.080;2022-10-16T07:45:03;4.37;;;2.13;;
6840;SDS011;3458;53.678;14.080;2022-10-16T07:47:29;76.27;;;11.47;;
6840;SDS011;3458;53.678;14.080;2022-10-16T07:49:54;4.00;;;2.33;;
6840;SDS011;3458;53.678;14.080;2022-10-16T07:52:20;5.20;;;2.70;;
6840;SDS011;3458;53.678;14.080;2022-10-16T07:54:45;5.83;;;2.50;;
6840;SDS011;3458;53.678;14.080;2022-10-16T07:57:11;3.03;;;2.53;;
6840;SDS011;3458;53.678;14.080;2022-10-16T07:59:37;3.10;;;1.80;;
6840;SDS011;3458;53.678;14.080;2022-10-16T08:02:02;4.03;;;2.03;;
6840;SDS011;3458;53.678;14.080;2022-10-16T08:04:28;3.37;;;2.27;;
6840;SDS011;3458;53.678;14.080;2022-10-16T08:06:53;2.33;;;1.90;;
6840;SDS011;3458;53.678;14.080;2022-10-16T08:09:19;4.90;;;2.20;;
6840;SDS011;3458;53.678;14.080;2022-10-16T08:11:45;6.00;;;2.67;;
6840;SDS011;3458;53.678;14.080;2022-10-16T08:14:10;2.63;;;1.90;;
6840;SDS011;3458;53.678;14.080;2022-10-16T08:16:36;4.83;;;1.70;;
6840;SDS011;3458;53.678;14.080;2022-10-16T08:19:01;2.60;;;1.60;;
6840;SDS011;3458;53.678;14.080;2022-10-16T08:21:27;3.10;;;1.80;;
6840;SDS011;3458;53.678;14.080;2022-10-16T08:23:53;1.63;;;1.53;;
6840;SDS011;3458;53.678;14.080;2022-10-16T08:26:20;2.03;;;1.83;;
6840;SDS011;3458;53.678;14.080;2022-10-16T08:28:45;2.60;;;1.77;;
6840;SDS011;3458;53.678;14.080;2022-10-16T08:31:14;3.40;;;1.60;;
6840;SDS011;3458;53.678;14.080;2022-10-16T08:33:42;1.97;;;1.77;;
6840;SDS011;3458;53.678;14.080;2022-10-16T08:36:09;2.30;;;1.80;;
6840;SDS011;3458;53.678;14.080;2022-10-16T08:38:35;1.53;;;1.43;;
6840;SDS011;3458;53.678;14.080;2022-10-16T08:46:37;8.10;;;1.70;;
6840;SDS011;3458;53.678;14.080;2022-10-16T08:49:25;1.87;;;1.70;;
6840;SDS011;3458;53.678;14.080;2022-10-16T08:51:51;3.13;;;2.00;;
6840;SDS011;3458;53.678;14.080;2022-10-16T08:57:01;1.87;;;1.70;;
6840;SDS011;3458;53.678;14.080;2022-10-16T08:59:34;5.10;;;2.00;;
6840;SDS011;3458;53.678;14.080;2022-10-16T09:02:00;10.80;;;1.97;;
6840;SDS011;3458;53.678;14.080;2022-10-16T09:04:36;3.70;;;1.87;;
6840;SDS011;3458;53.678;14.080;2022-10-16T09:07:23;1.80;;;1.70;;
6840;SDS011;3458;53.678;14.080;2022-10-16T09:10:21;4.00;;;1.50;;
6840;SDS011;3458;53.678;14.080;2022-10-16T09:15:40;3.03;;;1.73;;
6840;SDS011;3458;53.678;14.080;2022-10-16T09:18:33;3.50;;;2.07;;
6840;SDS011;3458;53.678;14.080;2022-10-16T09:23:50;4.67;;;2.07;;
6840;SDS011;3458;53.678;14.080;2022-10-16T09:26:16;1.60;;;1.50;;
6840;SDS011;3458;53.678;14.080;2022-10-16T09:28:44;3.80;;;2.00;;
6840;SDS011;3458;53.678;14.080;2022-10-16T09:31:13;34.27;;;2.53;;
6840;SDS011;3458;53.678;14.080;2022-10-16T09:33:42;2.63;;;1.73;;
6840;SDS011;3458;53.678;14.080;2022-10-16T09:36:10;3.67;;;2.40;;
6840;SDS011;3458;53.678;14.080;2022-10-16T09:38:37;4.80;;;2.40;;
6840;SDS011;3458;53.678;14.080;2022-10-16T09:41:03;3.70;;;1.67;;
6840;SDS011;3458;53.678;14.080;2022-10-16T09:46:22;3.10;;;1.50;;
6840;SDS011;3458;53.678;14.080;2022-10-16T09:48:52;2.67;;;1.40;;
6840;SDS011;3458;53.678;14.080;2022-10-16T09:51:25;2.30;;;1.20;;
6840;SDS011;3458;53.678;14.080;2022-10-16T09:56:30;8.43;;;1.80;;
6840;SDS011;3458;53.678;14.080;2022-10-16T09:58:58;2.50;;;1.10;;
6840;SDS011;3458;53.678;14.080;2022-10-16T10:01:30;4.53;;;1.50;;
6840;SDS011;3458;53.678;14.080;2022-10-16T10:04:02;2.93;;;1.37;;
6840;SDS011;3458;53.678;14.080;2022-10-16T10:06:29;5.30;;;2.53;;
6840;SDS011;3458;53.678;14.080;2022-10-16T10:09:05;3.03;;;1.40;;
6840;SDS011;3458;53.678;14.080;2022-10-16T10:11:42;1.63;;;1.20;;
6840;SDS011;3458;53.678;14.080;2022-10-16T10:16:48;2.23;;;1.73;;
6840;SDS011;3458;53.678;14.080;2022-10-16T10:19:20;3.53;;;1.40;;
6840;SDS011;3458;53.678;14.080;2022-10-16T10:21:48;4.47;;;1.30;;
6840;SDS011;3458;53.678;14.080;2022-10-16T10:24:17;5.13;;;1.40;;
6840;SDS011;3458;53.678;14.080;2022-10-16T10:26:49;2.17;;;1.50;;
6840;SDS011;3458;53.678;14.080;2022-10-16T10:29:36;1.93;;;1.00;;
6840;SDS011;3458;53.678;14.080;2022-10-16T10:34:50;8.83;;;1.73;;
6840;SDS011;3458;53.678;14.080;2022-10-16T10:43:12;1.10;;;1.00;;
6840;SDS011;3458;53.678;14.080;2022-10-16T10:46:00;2.40;;;1.27;;
6840;SDS011;3458;53.678;14.080;2022-10-16T10:48:45;3.93;;;1.43;;
6840;SDS011;3458;53.678;14.080;2022-10-16T10:53:55;1.90;;;1.23;;
6840;SDS011;3458;53.678;14.080;2022-10-16T10:56:46;2.60;;;1.23;;
6840;SDS011;3458;53.678;14.080;2022-10-16T10:59:37;2.53;;;1.17;;
6840;SDS011;3458;53.678;14.080;2022-10-16T11:02:22;3.33;;;1.63;;
6840;SDS011;3458;53.678;14.080;2022-10-16T11:04:50;1.50;;;1.40;;
6840;SDS011;3458;53.678;14.080;2022-10-16T11:07:33;4.50;;;2.03;;
6840;SDS011;3458;53.678;14.080;2022-10-16T11:10:20;1.70;;;1.23;;
6840;SDS011;3458;53.678;14.080;2022-10-16T11:12:49;2.10;;;1.27;;
6840;SDS011;3458;53.678;14.080;2022-10-16T11:15:29;2.57;;;1.30;;
6840;SDS011;3458;53.678;14.080;2022-10-16T11:20:45;4.63;;;1.90;;
6840;SDS011;3458;53.678;14.080;2022-10-16T11:23:21;6.07;;;1.90;;
6840;SDS011;3458;53.678;14.080;2022-10-16T11:25:51;1.20;;;1.10;;
6840;SDS011;3458;53.678;14.080;2022-10-16T11:28:27;4.87;;;1.50;;
6840;SDS011;3458;53.678;14.080;2022-10-16T11:34:09;3.37;;;1.37;;
6840;SDS011;3458;53.678;14.080;2022-10-16T11:36:45;3.90;;;2.00;;
6840;SDS011;3458;53.678;14.080;2022-10-16T11:39:31;2.20;;;1.13;;
6840;SDS011;3458;53.678;14.080;2022-10-16T11:42:10;3.00;;;1.27;;
6840;SDS011;3458;53.678;14.080;2022-10-16T11:45:00;2.17;;;1.27;;
6840;SDS011;3458;53.678;14.080;2022-10-16T11:47:40;2.43;;;0.90;;
6840;SDS011;3458;53.678;14.080;2022-10-16T11:50:28;2.50;;;1.33;;
6840;SDS011;3458;53.678;14.080;2022-10-16T11:53:39;1.80;;;1.27;;
6840;SDS011;3458;53.678;14.080;2022-10-16T11:56:16;4.17;;;1.93;;
6840;SDS011;3458;53.678;14.080;2022-10-16T11:58:50;2.17;;;1.97;;
6840;SDS011;3458;53.678;14.080;2022-10-16T12:01:48;2.50;;;1.37;;
6840;SDS011;3458;53.678;14.080;2022-10-16T12:04:31;1.73;;;1.13;;
6840;SDS011;3458;53.678;14.080;2022-10-16T12:07:11;3.47;;;1.17;;
6840;SDS011;3458;53.678;14.080;2022-10-16T12:09:41;3.67;;;1.30;;
6840;SDS011;3458;53.678;14.080;2022-10-16T12:12:26;2.23;;;1.20;;
6840;SDS011;3458;53.678;14.080;2022-10-16T12:15:02;4.30;;;1.10;;
6840;SDS011;3458;53.678;14.080;2022-10-16T12:17:47;5.03;;;2.83;;
6840;SDS011;3458;53.678;14.080;2022-10-16T12:22:47;1.40;;;1.30;;
6840;SDS011;3458;53.678;14.080;2022-10-16T12:25:25;2.00;;;1.20;;
6840;SDS011;3458;53.678;14.080;2022-10-16T12:27:57;2.50;;;1.20;;
6840;SDS011;3458;53.678;14.080;2022-10-16T12:30:26;3.47;;;1.30;;
6840;SDS011;3458;53.678;14.080;2022-10-16T12:32:55;3.70;;;1.50;;
6840;SDS011;3458;53.678;14.080;2022-10-16T12:35:23;2.70;;;1.10;;
6840;SDS011;3458;53.678;14.080;2022-10-16T12:37:52;1.83;;;1.33;;
6840;SDS011;3458;53.678;14.080;2022-10-16T12:42:52;4.03;;;1.30;;
6840;SDS011;3458;53.678;14.080;2022-10-16T12:45:28;3.83;;;1.20;;
6840;SDS011;3458;53.678;14.080;2022-10-16T12:47:59;3.63;;;1.20;;
6840;SDS011;3458;53.678;14.080;2022-10-16T12:50:36;1.67;;;1.10;;
6840;SDS011;3458;53.678;14.080;2022-10-16T12:53:04;1.30;;;1.10;;
6840;SDS011;3458;53.678;14.080;2022-10-16T12:55:58;1.87;;;1.00;;
6840;SDS011;3458;53.678;14.080;2022-10-16T13:01:37;1.20;;;1.10;;
6840;SDS011;3458;53.678;14.080;2022-10-16T13:07:38;1.77;;;1.30;;
6840;SDS011;3458;53.678;14.080;2022-10-16T13:10:18;3.80;;;1.40;;
6840;SDS011;3458;53.678;14.080;2022-10-16T13:29:18;3.87;;;1.50;;
6840;SDS011;3458;53.678;14.080;2022-10-16T13:31:44;3.27;;;1.23;;
6840;SDS011;3458;53.678;14.080;2022-10-16T13:34:20;3.20;;;1.03;;
6840;SDS011;3458;53.678;14.080;2022-10-16T13:36:48;1.20;;;1.10;;
6840;SDS011;3458;53.678;14.080;2022-10-16T13:39:19;1.87;;;1.10;;
6840;SDS011;3458;53.678;14.080;2022-10-16T13:42:04;1.20;;;1.10;;
6840;SDS011;3458;53.678;14.080;2022-10-16T13:44:42;2.30;;;1.30;;
6840;SDS011;3458;53.678;14.080;2022-10-16T13:47:17;1.23;;;1.13;;
6840;SDS011;3458;53.678;14.080;2022-10-16T13:49:45;2.53;;;1.30;;
6840;SDS011;3458;53.678;14.080;2022-10-16T13:52:18;1.53;;;0.90;;
6840;SDS011;3458;53.678;14.080;2022-10-16T13:54:45;1.17;;;1.00;;
6840;SDS011;3458;53.678;14.080;2022-10-16T13:57:14;1.30;;;1.07;;
6840;SDS011;3458;53.678;14.080;2022-10-16T13:59:43;2.60;;;1.20;;
6840;SDS011;3458;53.678;14.080;2022-10-16T14:02:20;1.40;;;1.20;;
6840;SDS011;3458;53.678;14.080;2022-10-16T14:04:52;1.90;;;1.50;;
6840;SDS011;3458;53.678;14.080;2022-10-16T14:07:25;1.37;;;1.10;;
6840;SDS011;3458;53.678;14.080;2022-10-16T14:09:53;1.50;;;1.40;;
6840;SDS011;3458;53.678;14.080;2022-10-16T14:12:19;6.33;;;2.10;;
6840;SDS011;3458;53.678;14.080;2022-10-16T14:14:47;2.07;;;1.87;;
6840;SDS011;3458;53.678;14.080;2022-10-16T14:17:35;3.80;;;1.70;;
6840;SDS011;3458;53.678;14.080;2022-10-16T14:20:03;5.73;;;4.10;;
6840;SDS011;3458;53.678;14.080;2022-10-16T14:22:40;1.30;;;1.20;;
6840;SDS011;3458;53.678;14.080;2022-10-16T14:27:44;1.37;;;1.27;;
6840;SDS011;3458;53.678;14.080;2022-10-16T14:30:17;1.20;;;1.03;;
6840;SDS011;3458;53.678;14.080;2022-10-16T14:32:53;1.37;;;1.10;;
6840;SDS011;3458;53.678;14.080;2022-10-16T14:35:25;2.77;;;1.03;;
6840;SDS011;3458;53.678;14.080;2022-10-16T14:37:57;2.10;;;1.00;;
6840;SDS011;3458;53.678;14.080;2022-10-16T14:40:26;1.83;;;1.00;;
6840;SDS011;3458;53.678;14.080;2022-10-16T14:42:53;2.73;;;1.00;;
6840;SDS011;3458;53.678;14.080;2022-10-16T14:45:20;1.70;;;1.20;;
6840;SDS011;3458;53.678;14.080;2022-10-16T14:47:49;1.03;;;0.90;;
6840;SDS011;3458;53.678;14.080;2022-10-16T14:50:18;1.50;;;0.90;;
6840;SDS011;3458;53.678;14.080;2022-10-16T14:52:43;3.00;;;1.13;;
6840;SDS011;3458;53.678;14.080;2022-10-16T14:55:09;1.80;;;1.20;;
6840;SDS011;3458;53.678;14.080;2022-10-16T14:57:36;1.43;;;1.33;;
6840;SDS011;3458;53.678;14.080;2022-10-16T15:00:03;3.97;;;1.70;;
6840;SDS011;3458;53.678;14.080;2022-10-16T15:02:35;1.70;;;1.10;;
6840;SDS011;3458;53.678;14.080;2022-10-16T15:05:20;0.80;;;0.80;;
6840;SDS011;3458;53.678;14.080;2022-10-16T15:07:51;2.40;;;1.10;;
6840;SDS011;3458;53.678;14.080;2022-10-16T15:10:18;1.00;;;1.00;;
6840;SDS011;3458;53.678;14.080;2022-10-16T15:12:46;2.00;;;1.10;;
6840;SDS011;3458;53.678;14.080;2022-10-16T15:15:23;2.87;;;1.80;;
6840;SDS011;3458;53.678;14.080;2022-10-16T15:18:06;1.10;;;1.00;;
6840;SDS011;3458;53.678;14.080;2022-10-16T15:20:35;2.60;;;1.30;;
6840;SDS011;3458;53.678;14.080;2022-10-16T15:23:09;2.53;;;1.20;;
6840;SDS011;3458;53.678;14.080;2022-10-16T15:25:47;1.97;;;1.03;;
6840;SDS011;3458;53.678;14.080;2022-10-16T15:28:17;1.27;;;0.97;;
6840;SDS011;3458;53.678;14.080;2022-10-16T15:30:44;4.40;;;1.50;;
6840;SDS011;3458;53.678;14.080;2022-10-16T15:33:12;2.17;;;1.23;;
6840;SDS011;3458;53.678;14.080;2022-10-16T15:35:43;1.67;;;1.00;;
6840;SDS011;3458;53.678;14.080;2022-10-16T15:38:12;3.03;;;1.13;;
6840;SDS011;3458;53.678;14.080;2022-10-16T15:40:42;3.87;;;1.13;;
6840;SDS011;3458;53.678;14.080;2022-10-16T15:43:07;1.27;;;1.00;;
6840;SDS011;3458;53.678;14.080;2022-10-16T15:45:33;2.00;;;1.07;;
6840;SDS011;3458;53.678;14.080;2022-10-16T15:47:59;1.17;;;1.07;;
6840;SDS011;3458;53.678;14.080;2022-10-16T15:50:25;1.70;;;1.60;;
6840;SDS011;3458;53.678;14.080;2022-10-16T15:52:51;2.03;;;1.67;;
6840;SDS011;3458;53.678;14.080;2022-10-16T15:55:17;3.77;;;2.50;;
6840;SDS011;3458;53.678;14.080;2022-10-16T15:57:43;3.40;;;2.90;;
6840;SDS011;3458;53.678;14.080;2022-10-16T16:00:11;5.33;;;2.17;;
6840;SDS011;3458;53.678;14.080;2022-10-16T16:02:38;1.90;;;1.80;;
6840;SDS011;3458;53.678;14.080;2022-10-16T16:05:04;1.57;;;1.47;;
6840;SDS011;3458;53.678;14.080;2022-10-16T16:07:37;7.43;;;1.50;;
6840;SDS011;3458;53.678;14.080;2022-10-16T16:10:05;2.10;;;1.07;;
6840;SDS011;3458;53.678;14.080;2022-10-16T16:12:33;3.33;;;1.17;;
6840;SDS011;3458;53.678;14.080;2022-10-16T16:14:58;7.97;;;1.40;;
6840;SDS011;3458;53.678;14.080;2022-10-16T16:17:24;1.50;;;1.40;;
6840;SDS011;3458;53.678;14.080;2022-10-16T16:19:50;2.33;;;1.50;;
6840;SDS011;3458;53.678;14.080;2022-10-16T16:22:16;4.20;;;1.40;;
6840;SDS011;3458;53.678;14.080;2022-10-16T16:24:41;3.70;;;1.93;;
6840;SDS011;3458;53.678;14.080;2022-10-16T16:27:07;3.03;;;2.00;;
6840;SDS011;3458;53.678;14.080;2022-10-16T16:29:33;5.57;;;1.97;;
6840;SDS011;3458;53.678;14.080;2022-10-16T16:31:59;5.33;;;2.30;;
6840;SDS011;3458;53.678;14.080;2022-10-16T16:34:26;6.37;;;2.50;;
6840;SDS011;3458;53.678;14.080;2022-10-16T16:36:52;7.50;;;2.47;;
6840;SDS011;3458;53.678;14.080;2022-10-16T16:39:18;4.57;;;2.37;;